createdAt,value
2019-04-28T00:01:58.427Z,9.21
2019-04-28T00:04:28.908Z,9.11
2019-04-28T00:06:59.331Z,9.11
2019-04-28T00:09:31.345Z,9.08
2019-04-28T00:12:02.588Z,9.03
2019-04-28T00:14:33.060Z,9.10
2019-04-28T00:17:04.368Z,9.11
2019-04-28T00:19:34.872Z,9.05
2019-04-28T00:22:17.888Z,9.01
2019-04-28T00:24:53.865Z,9.05
2019-04-28T00:27:24.718Z,9.10
2019-04-28T00:29:55.455Z,9.08
2019-04-28T00:32:26.296Z,9.03
2019-04-28T00:34:56.728Z,8.96
2019-04-28T00:37:31.912Z,8.98
2019-04-28T00:40:02.902Z,9.02
2019-04-28T00:42:34.051Z,8.94
2019-04-28T00:45:05.212Z,9.03
2019-04-28T00:47:36.163Z,9.03
2019-04-28T00:50:07.637Z,8.96
2019-04-28T00:52:38.433Z,8.94
2019-04-28T00:55:11.050Z,8.93
2019-04-28T00:57:41.950Z,8.98
2019-04-28T01:00:14.420Z,9.06
2019-04-28T01:02:45.591Z,9.02
2019-04-28T01:05:16.219Z,9.01
2019-04-28T01:07:47.047Z,8.99
2019-04-28T01:10:21.050Z,9.00
2019-04-28T01:12:52.347Z,8.95
2019-04-28T01:15:39.655Z,8.91
2019-04-28T01:18:25.811Z,8.93
2019-04-28T01:20:56.758Z,8.95
2019-04-28T01:23:27.206Z,8.94
2019-04-28T01:25:59.955Z,8.89
2019-04-28T01:28:31.256Z,8.92
2019-04-28T01:31:25.353Z,8.90
2019-04-28T01:34:19.852Z,8.91
2019-04-28T01:36:51.731Z,8.88
2019-04-28T01:39:22.387Z,8.81
2019-04-28T01:44:15.188Z,8.91
2019-04-28T01:46:46.689Z,8.85
2019-04-28T01:49:17.390Z,8.86
2019-04-28T01:52:00.924Z,8.79
2019-04-28T01:54:31.646Z,8.81
2019-04-28T01:57:02.180Z,8.83
2019-04-28T01:59:33.082Z,8.78
2019-04-28T02:02:03.995Z,8.75
2019-04-28T02:04:34.441Z,8.78
2019-04-28T02:07:05.278Z,8.74
2019-04-28T02:09:36.015Z,8.73
2019-04-28T02:12:06.452Z,8.77
2019-04-28T02:14:36.932Z,8.81
2019-04-28T02:17:07.392Z,8.81
2019-04-28T02:19:37.830Z,8.79
2019-04-28T02:22:32.665Z,8.77
2019-04-28T02:25:03.104Z,8.72
2019-04-28T02:27:33.889Z,8.71
2019-04-28T02:30:06.210Z,8.75
2019-04-28T02:32:36.644Z,8.72
2019-04-28T02:35:10.425Z,8.74
2019-04-28T02:37:40.555Z,8.79
2019-04-28T02:40:11.523Z,8.71
2019-04-28T02:42:41.946Z,8.70
2019-04-28T02:45:14.304Z,8.68
2019-04-28T02:47:44.733Z,8.66
2019-04-28T02:50:25.107Z,8.69
2019-04-28T02:53:06.839Z,8.70
2019-04-28T02:55:37.330Z,8.66
2019-04-28T02:58:07.767Z,8.68
2019-04-28T03:00:38.205Z,8.59
2019-04-28T03:03:11.013Z,8.52
2019-04-28T03:05:41.415Z,8.60
2019-04-28T03:08:12.096Z,8.53
2019-04-28T03:10:42.577Z,8.54
2019-04-28T03:13:13.532Z,8.57
2019-04-28T03:15:44.577Z,8.54
2019-04-28T03:18:15.145Z,8.65
2019-04-28T03:20:45.576Z,8.62
2019-04-28T03:23:17.049Z,8.62
2019-04-28T03:26:11.186Z,8.64
2019-04-28T03:28:51.486Z,8.58
2019-04-28T03:32:16.496Z,8.71
2019-04-28T03:34:15.936Z,8.59
2019-04-28T03:36:46.378Z,8.68
2019-04-28T03:39:16.891Z,8.58
2019-04-28T03:41:47.295Z,8.48
2019-04-28T03:44:17.719Z,8.56
2019-04-28T03:46:52.606Z,8.57
2019-04-28T03:49:33.306Z,8.55
2019-04-28T03:52:06.835Z,8.57
2019-04-28T03:54:40.660Z,8.60
2019-04-28T03:57:11.322Z,8.59
2019-04-28T03:59:43.815Z,8.51
2019-04-28T04:02:14.717Z,8.59
2019-04-28T04:04:45.597Z,8.56
2019-04-28T04:07:16.752Z,8.61
2019-04-28T04:10:05.355Z,8.62
2019-04-28T04:13:00.902Z,8.65
2019-04-28T04:15:53.332Z,8.60
2019-04-28T04:18:26.289Z,8.62
2019-04-28T04:20:56.758Z,8.63
2019-04-28T04:23:30.862Z,8.62
2019-04-28T04:26:01.832Z,8.62
2019-04-28T04:28:33.020Z,8.62
2019-04-28T04:31:03.566Z,8.63
2019-04-28T04:33:34.460Z,8.72
2019-04-28T04:36:04.889Z,8.69
2019-04-28T04:38:35.318Z,8.67
2019-04-28T04:41:06.199Z,8.70
2019-04-28T04:43:36.643Z,8.51
2019-04-28T04:46:22.739Z,8.52
2019-04-28T04:48:53.347Z,8.57
2019-04-28T04:51:23.788Z,8.61
2019-04-28T04:53:54.269Z,8.56
2019-04-28T04:56:24.703Z,8.60
2019-04-28T04:58:55.485Z,8.57
2019-04-28T05:01:43.769Z,8.61
2019-04-28T05:04:36.245Z,8.62
2019-04-28T05:07:07.266Z,8.60
2019-04-28T05:09:39.496Z,8.62
2019-04-28T05:12:10.373Z,8.65
2019-04-28T05:14:41.217Z,8.73
2019-04-28T05:17:11.950Z,8.73
2019-04-28T05:19:42.686Z,8.72
2019-04-28T05:22:13.777Z,8.73
2019-04-28T05:25:00.097Z,8.76
2019-04-28T05:27:32.504Z,8.75
2019-04-28T05:30:05.157Z,8.81
2019-04-28T05:32:44.649Z,8.73
2019-04-28T05:35:07.303Z,8.75
2019-04-28T05:37:37.731Z,8.85
2019-04-28T05:40:10.514Z,8.93
2019-04-28T05:43:00.847Z,8.95
2019-04-28T05:45:32.319Z,8.99
2019-04-28T05:48:02.891Z,9.02
2019-04-28T05:50:44.589Z,9.03
2019-04-28T05:53:21.773Z,9.07
2019-04-28T05:56:13.085Z,9.09
2019-04-28T05:59:05.214Z,9.13
2019-04-28T06:01:43.513Z,9.22
2019-04-28T06:04:14.299Z,9.27
2019-04-28T06:06:47.183Z,9.22
2019-04-28T06:09:24.586Z,9.26
2019-04-28T06:11:55.286Z,9.31
2019-04-28T06:14:25.716Z,9.32
2019-04-28T06:16:56.203Z,9.31
2019-04-28T06:19:26.634Z,9.30
2019-04-28T06:21:57.062Z,9.32
2019-04-28T06:24:27.563Z,9.37
2019-04-28T06:26:57.994Z,9.46
2019-04-28T06:29:28.729Z,9.41
2019-04-28T06:31:59.575Z,9.46
2019-04-28T06:34:30.021Z,9.45
2019-04-28T06:37:00.449Z,9.55
2019-04-28T06:39:30.923Z,9.42
2019-04-28T06:42:01.644Z,9.47
2019-04-28T06:44:32.171Z,9.53
2019-04-28T06:47:03.070Z,9.60
2019-04-28T06:49:33.941Z,9.65
2019-04-28T06:52:04.584Z,9.75
2019-04-28T06:54:35.336Z,9.75
2019-04-28T06:57:05.770Z,9.83
2019-04-28T06:59:36.544Z,9.90
2019-04-28T07:02:07.012Z,9.90
2019-04-28T07:04:38.121Z,9.79
2019-04-28T07:07:08.552Z,9.81
2019-04-28T07:09:39.387Z,9.71
2019-04-28T07:12:09.820Z,9.68
2019-04-28T07:14:40.256Z,9.70
2019-04-28T07:17:10.742Z,9.71
2019-04-28T07:19:42.818Z,9.73
2019-04-28T07:22:21.669Z,9.77
2019-04-28T07:24:52.134Z,9.90
2019-04-28T07:27:22.667Z,9.95
2019-04-28T07:29:53.158Z,10.17
2019-04-28T07:32:23.597Z,10.15
2019-04-28T07:34:54.329Z,10.26
2019-04-28T07:37:25.177Z,10.46
2019-04-28T07:39:56.858Z,10.73
2019-04-28T07:42:27.820Z,10.95
2019-04-28T07:44:58.417Z,11.09
2019-04-28T07:47:28.902Z,11.08
2019-04-28T07:50:00.104Z,10.97
2019-04-28T07:52:39.736Z,11.17
2019-04-28T07:55:10.291Z,11.14
2019-04-28T07:57:40.734Z,11.07
2019-04-28T08:00:13.513Z,11.02
2019-04-28T08:02:43.967Z,11.02
2019-04-28T08:05:14.422Z,11.19
2019-04-28T08:07:44.910Z,11.42
2019-04-28T08:10:15.798Z,11.61
2019-04-28T08:12:49.119Z,11.59
2019-04-28T08:15:20.150Z,11.58
2019-04-28T08:17:50.616Z,11.75
2019-04-28T08:20:21.515Z,11.68
2019-04-28T08:22:52.764Z,11.63
2019-04-28T08:25:23.246Z,11.71
2019-04-28T08:27:53.714Z,11.83
2019-04-28T08:30:24.442Z,11.77
2019-04-28T08:33:00.388Z,11.83
2019-04-28T08:35:31.215Z,11.84
2019-04-28T08:38:01.648Z,11.75
2019-04-28T08:40:32.434Z,11.53
2019-04-28T08:43:03.774Z,11.53
2019-04-28T08:45:34.219Z,11.36
2019-04-28T08:48:04.653Z,11.28
2019-04-28T08:50:35.161Z,11.13
2019-04-28T08:53:05.914Z,11.22
2019-04-28T08:55:36.323Z,11.23
2019-04-28T08:58:06.814Z,11.51
2019-04-28T09:00:37.266Z,11.76
2019-04-28T09:03:08.026Z,12.20
2019-04-28T09:05:38.522Z,12.61
2019-04-28T09:08:09.020Z,12.86
2019-04-28T09:10:39.834Z,13.01
2019-04-28T09:13:10.363Z,13.20
2019-04-28T09:15:40.814Z,13.57
2019-04-28T09:18:11.248Z,13.60
2019-04-28T09:20:42.681Z,13.54
2019-04-28T09:23:13.858Z,13.47
2019-04-28T09:25:44.696Z,13.28
2019-04-28T09:28:15.230Z,13.30
2019-04-28T09:30:45.668Z,13.01
2019-04-28T09:33:16.127Z,12.99
2019-04-28T09:35:46.670Z,12.80
2019-04-28T09:38:17.423Z,12.79
2019-04-28T09:40:47.878Z,12.98
2019-04-28T09:43:26.018Z,13.05
2019-04-28T09:46:01.786Z,13.12
2019-04-28T09:48:32.291Z,12.91
2019-04-28T09:51:03.081Z,12.81
2019-04-28T09:53:33.922Z,12.65
2019-04-28T09:56:04.454Z,12.48
2019-04-28T09:58:35.538Z,12.25
2019-04-28T10:01:06.674Z,11.97
2019-04-28T10:03:37.309Z,11.72
2019-04-28T10:06:08.139Z,11.61
2019-04-28T10:08:38.638Z,11.55
2019-04-28T10:11:10.098Z,11.54
2019-04-28T10:13:40.947Z,11.54
2019-04-28T10:16:11.406Z,11.56
2019-04-28T10:18:42.804Z,11.45
2019-04-28T10:21:13.862Z,11.59
2019-04-28T10:23:44.327Z,11.70
2019-04-28T10:26:14.820Z,11.76
2019-04-28T10:28:45.973Z,11.91
2019-04-28T10:31:16.499Z,11.97
2019-04-28T10:33:52.478Z,12.23
2019-04-28T10:36:23.116Z,12.40
2019-04-28T10:38:55.206Z,12.45
2019-04-28T10:41:33.541Z,12.71
2019-04-28T10:44:04.109Z,12.66
2019-04-28T10:46:34.946Z,12.91
2019-04-28T10:49:05.446Z,13.00
2019-04-28T10:51:35.881Z,12.98
2019-04-28T10:54:06.337Z,13.07
2019-04-28T10:56:36.821Z,13.03
2019-04-28T10:59:07.259Z,13.22
2019-04-28T11:01:38.033Z,13.29
2019-04-28T11:04:11.489Z,13.21
2019-04-28T11:06:41.938Z,13.35
2019-04-28T11:09:37.664Z,13.35
2019-04-28T11:12:10.843Z,13.26
2019-04-28T11:14:41.397Z,12.97
2019-04-28T11:17:14.411Z,12.66
2019-04-28T11:19:44.849Z,12.61
2019-04-28T11:22:15.671Z,12.46
2019-04-28T11:24:46.541Z,12.36
2019-04-28T11:27:17.647Z,12.49
2019-04-28T11:29:48.138Z,12.67
2019-04-28T11:32:18.664Z,12.72
2019-04-28T11:35:01.829Z,13.01
2019-04-28T11:37:32.304Z,13.38
2019-04-28T11:40:03.089Z,13.80
2019-04-28T11:42:33.858Z,14.24
2019-04-28T11:45:05.212Z,14.33
2019-04-28T11:47:36.053Z,14.42
2019-04-28T11:50:07.017Z,14.65
2019-04-28T11:52:37.503Z,14.95
2019-04-28T11:55:08.192Z,15.11
2019-04-28T11:57:39.616Z,15.38
2019-04-28T12:00:22.245Z,15.35
2019-04-28T12:02:53.021Z,15.46
2019-04-28T12:05:34.253Z,15.68
2019-04-28T12:07:58.286Z,15.84
2019-04-28T12:10:33.675Z,15.77
2019-04-28T12:13:10.487Z,16.03
2019-04-28T12:15:59.974Z,16.22
2019-04-28T12:19:05.096Z,16.10
2019-04-28T12:21:35.922Z,16.43
2019-04-28T12:24:06.432Z,16.43
2019-04-28T12:26:37.337Z,16.28
2019-04-28T12:29:08.205Z,16.16
2019-04-28T12:31:38.652Z,16.24
2019-04-28T12:34:10.121Z,16.40
2019-04-28T12:36:40.565Z,16.42
2019-04-28T12:39:11.028Z,16.59
2019-04-28T12:41:41.926Z,16.77
2019-04-28T12:44:12.740Z,16.83
2019-04-28T12:46:43.915Z,17.22
2019-04-28T12:49:28.691Z,17.04
2019-04-28T12:51:59.150Z,16.99
2019-04-28T12:54:31.878Z,17.15
2019-04-28T12:57:02.717Z,17.23
2019-04-28T12:59:39.776Z,17.39
2019-04-28T13:02:17.605Z,17.50
2019-04-28T13:04:59.776Z,17.27
2019-04-28T13:07:30.277Z,17.10
2019-04-28T13:10:00.709Z,17.55
2019-04-28T13:12:31.150Z,17.09
2019-04-28T13:15:02.062Z,17.10
2019-04-28T13:17:32.540Z,17.42
2019-04-28T13:20:03.257Z,17.35
2019-04-28T13:22:33.748Z,17.10
2019-04-28T13:25:04.614Z,16.74
2019-04-28T13:27:35.137Z,16.69
2019-04-28T13:30:06.650Z,16.35
2019-04-28T13:32:37.129Z,16.27
2019-04-28T13:35:07.692Z,16.17
2019-04-28T13:37:38.555Z,16.02
2019-04-28T13:40:16.427Z,15.89
2019-04-28T13:42:46.927Z,15.82
2019-04-28T13:45:20.509Z,15.71
2019-04-28T13:47:50.957Z,15.53
2019-04-28T13:50:41.495Z,15.38
2019-04-28T13:53:12.577Z,15.46
2019-04-28T13:55:59.994Z,15.34
2019-04-28T13:58:32.346Z,15.29
2019-04-28T14:01:25.001Z,15.19
2019-04-28T14:04:13.685Z,15.20
2019-04-28T14:06:47.781Z,15.30
2019-04-28T14:09:18.257Z,15.12
2019-04-28T14:11:48.696Z,15.18
2019-04-28T14:14:19.281Z,14.96
2019-04-28T14:16:50.225Z,15.03
2019-04-28T14:19:20.643Z,14.94
2019-04-28T14:21:51.501Z,14.91
2019-04-28T14:24:21.981Z,14.79
2019-04-28T14:26:53.337Z,14.76
2019-04-28T14:29:24.179Z,14.79
2019-04-28T14:31:55.845Z,14.66
2019-04-28T14:34:26.335Z,14.64
2019-04-28T14:36:56.879Z,14.57
2019-04-28T14:39:27.343Z,14.30
2019-04-28T14:41:58.190Z,14.21
2019-04-28T14:44:28.690Z,14.08
2019-04-28T14:46:59.174Z,13.90
2019-04-28T14:49:29.586Z,13.91
2019-04-28T14:52:00.810Z,13.91
2019-04-28T14:54:31.341Z,13.89
2019-04-28T14:57:01.851Z,13.65
2019-04-28T14:59:32.680Z,13.75
2019-04-28T15:02:15.697Z,13.85
2019-04-28T15:05:10.484Z,13.86
2019-04-28T15:07:59.965Z,13.93
2019-04-28T15:10:37.066Z,13.88
2019-04-28T15:13:07.888Z,14.01
2019-04-28T15:15:40.700Z,14.04
2019-04-28T15:18:11.798Z,14.06
2019-04-28T15:20:42.666Z,13.88
2019-04-28T15:23:13.105Z,14.06
2019-04-28T15:25:43.600Z,14.26
2019-04-28T15:28:15.375Z,14.42
2019-04-28T15:30:46.252Z,14.52
2019-04-28T15:33:17.154Z,14.59
2019-04-28T15:35:47.606Z,14.57
2019-04-28T15:38:18.426Z,14.65
2019-04-28T15:40:48.922Z,14.60
2019-04-28T15:43:19.774Z,14.59
2019-04-28T15:45:50.238Z,14.38
2019-04-28T15:48:21.209Z,14.42
2019-04-28T15:50:54.259Z,14.38
2019-04-28T15:53:24.782Z,14.38
2019-04-28T15:56:17.288Z,14.31
2019-04-28T15:58:48.101Z,14.21
2019-04-28T16:01:19.509Z,14.25
2019-04-28T16:03:50.656Z,14.26
2019-04-28T16:06:21.099Z,14.36
2019-04-28T16:08:51.534Z,14.22
2019-04-28T16:11:22.345Z,14.18
2019-04-28T16:13:52.787Z,14.22
2019-04-28T16:16:25.000Z,14.22
2019-04-28T16:18:55.570Z,14.23
2019-04-28T16:21:26.031Z,14.28
2019-04-28T16:23:56.484Z,14.17
2019-04-28T16:26:27.394Z,14.17
2019-04-28T16:28:58.228Z,14.14
2019-04-28T16:31:28.665Z,14.09
2019-04-28T16:33:59.803Z,14.14
2019-04-28T16:36:30.237Z,14.22
2019-04-28T16:39:00.701Z,14.25
2019-04-28T16:41:39.525Z,14.36
2019-04-28T16:44:18.552Z,14.42
2019-04-28T16:46:49.029Z,14.38
2019-04-28T16:49:20.190Z,14.29
2019-04-28T16:51:50.633Z,14.30
2019-04-28T16:54:21.461Z,14.21
2019-04-28T16:57:09.022Z,14.11
2019-04-28T16:59:58.857Z,14.04
2019-04-28T17:02:39.374Z,13.91
2019-04-28T17:05:10.662Z,13.79
2019-04-28T17:07:52.412Z,13.71
2019-04-28T17:10:14.445Z,13.66
2019-04-28T17:12:47.201Z,13.62
2019-04-28T17:15:18.009Z,13.62
2019-04-28T17:17:48.859Z,13.62
2019-04-28T17:20:19.992Z,13.58
2019-04-28T17:22:50.896Z,13.65
2019-04-28T17:25:23.926Z,13.55
2019-04-28T17:27:54.423Z,13.52
2019-04-28T17:30:25.909Z,13.39
2019-04-28T17:32:56.383Z,13.38
2019-04-28T17:35:26.920Z,13.40
2019-04-28T17:38:06.785Z,13.48
2019-04-28T17:40:33.269Z,13.48
2019-04-28T17:43:04.311Z,13.40
2019-04-28T17:45:35.136Z,13.37
2019-04-28T17:48:14.870Z,13.34
2019-04-28T17:50:49.202Z,13.32
2019-04-28T17:53:19.687Z,13.32
2019-04-28T17:55:50.166Z,13.29
2019-04-28T17:58:21.002Z,13.22
2019-04-28T18:01:16.214Z,13.18
2019-04-28T18:04:08.426Z,13.12
2019-04-28T18:06:41.897Z,12.98
2019-04-28T18:09:13.602Z,12.96
2019-04-28T18:11:44.044Z,12.89
2019-04-28T18:14:21.997Z,12.85
2019-04-28T18:17:11.396Z,12.81
2019-04-28T18:19:42.263Z,12.71
2019-04-28T18:22:12.693Z,12.69
2019-04-28T18:24:43.137Z,12.63
2019-04-28T18:27:14.634Z,12.61
2019-04-28T18:29:45.142Z,12.55
2019-04-28T18:32:54.773Z,12.48
2019-04-28T18:35:44.488Z,12.54
2019-04-28T18:38:34.869Z,12.38
2019-04-28T18:41:07.376Z,12.35
2019-04-28T18:43:57.862Z,12.25
2019-04-28T18:46:30.101Z,12.21
2019-04-28T18:49:00.929Z,12.11
2019-04-28T18:51:31.423Z,12.05
2019-04-28T18:54:02.284Z,11.99
2019-04-28T18:56:33.873Z,11.88
2019-04-28T18:59:04.935Z,11.86
2019-04-28T19:02:03.561Z,11.90
2019-04-28T19:04:35.232Z,11.75
2019-04-28T19:07:08.648Z,11.75
2019-04-28T19:09:52.163Z,11.59
2019-04-28T19:12:43.961Z,11.44
2019-04-28T19:15:37.115Z,11.39
2019-04-28T19:18:16.852Z,11.04
2019-04-28T19:20:47.687Z,10.89
2019-04-28T19:23:21.309Z,10.79
2019-04-28T19:25:55.157Z,10.94
2019-04-28T19:28:26.126Z,10.82
2019-04-28T19:30:58.103Z,10.72
2019-04-28T19:33:29.489Z,10.66
2019-04-28T19:36:00.284Z,10.56
2019-04-28T19:38:30.757Z,10.66
2019-04-28T19:41:01.579Z,10.70
2019-04-28T19:43:32.034Z,10.71
2019-04-28T19:46:05.834Z,10.73
2019-04-28T19:48:36.635Z,10.59
2019-04-28T19:51:07.078Z,10.34
2019-04-28T19:53:42.678Z,10.32
2019-04-28T19:56:20.620Z,10.38
2019-04-28T19:59:00.177Z,10.46
2019-04-28T20:01:32.219Z,10.32
2019-04-28T20:04:02.650Z,10.22
2019-04-28T20:06:34.751Z,10.27
2019-04-28T20:09:06.674Z,10.21
2019-04-28T20:11:37.872Z,10.19
2019-04-28T20:14:09.240Z,10.27
2019-04-28T20:16:40.313Z,10.20
2019-04-28T20:19:10.746Z,10.10
2019-04-28T20:21:41.252Z,10.05
2019-04-28T20:24:11.701Z,10.06
2019-04-28T20:26:42.558Z,10.02
2019-04-28T20:29:13.393Z,9.95
2019-04-28T20:31:43.841Z,9.86
2019-04-28T20:34:14.321Z,9.74
2019-04-28T20:36:54.164Z,9.63
2019-04-28T20:39:29.340Z,9.63
2019-04-28T20:42:17.800Z,9.76
2019-04-28T20:44:49.544Z,9.72
2019-04-28T20:47:20.995Z,9.67
2019-04-28T20:49:51.829Z,9.67
2019-04-28T20:52:22.672Z,9.63
2019-04-28T20:54:53.545Z,9.54
2019-04-28T20:57:24.065Z,9.56
2019-04-28T20:59:54.564Z,9.51
2019-04-28T21:02:25.313Z,9.42
2019-04-28T21:04:55.814Z,9.41
2019-04-28T21:07:26.581Z,9.31
2019-04-28T21:09:57.045Z,9.25
2019-04-28T21:12:27.848Z,9.25
2019-04-28T21:14:58.327Z,9.22
2019-04-28T21:17:29.184Z,9.29
2019-04-28T21:20:00.057Z,9.25
2019-04-28T21:22:30.505Z,9.18
2019-04-28T21:25:01.262Z,9.03
2019-04-28T21:27:31.718Z,8.96
2019-04-28T21:30:02.238Z,8.90
2019-04-28T21:32:32.705Z,8.87
2019-04-28T21:35:03.192Z,8.89
2019-04-28T21:37:34.946Z,8.98
2019-04-28T21:40:07.423Z,8.90
2019-04-28T21:42:55.831Z,8.86
2019-04-28T21:45:43.870Z,8.80
2019-04-28T21:48:32.092Z,8.87
2019-04-28T21:51:02.561Z,8.54
2019-04-28T21:53:33.705Z,8.50
2019-04-28T21:56:04.133Z,8.58
2019-04-28T21:58:34.619Z,8.55
2019-04-28T22:01:05.956Z,8.43
2019-04-28T22:03:36.390Z,8.33
2019-04-28T22:06:06.898Z,8.25
2019-04-28T22:08:37.420Z,8.32
2019-04-28T22:11:07.858Z,8.51
2019-04-28T22:13:38.336Z,8.47
2019-04-28T22:16:09.062Z,8.41
2019-04-28T22:18:40.216Z,8.40
2019-04-28T22:21:10.689Z,8.19
2019-04-28T22:24:08.987Z,8.27
2019-04-28T22:26:50.231Z,8.21
2019-04-28T22:29:21.029Z,8.01
2019-04-28T22:31:51.460Z,7.95
2019-04-28T22:34:22.297Z,7.86
2019-04-28T22:36:52.725Z,7.91
2019-04-28T22:39:23.566Z,7.95
2019-04-28T22:41:54.183Z,8.00
2019-04-28T22:44:24.618Z,8.09
2019-04-28T22:46:55.060Z,8.07
2019-04-28T22:49:26.005Z,7.97
2019-04-28T22:51:56.432Z,7.93
2019-04-28T22:54:42.345Z,7.91
2019-04-28T22:57:37.970Z,7.87
2019-04-28T23:00:30.124Z,7.67
2019-04-28T23:03:00.643Z,7.55
2019-04-28T23:05:31.556Z,7.65
2019-04-28T23:08:02.057Z,7.74
2019-04-28T23:10:32.487Z,7.78
2019-04-28T23:13:02.912Z,7.89
2019-04-28T23:15:33.396Z,7.82
2019-04-28T23:18:03.833Z,7.65
2019-04-28T23:20:36.409Z,7.71
2019-04-28T23:23:07.903Z,7.82
2019-04-28T23:25:38.333Z,7.83
2019-04-28T23:28:08.760Z,7.83
2019-04-28T23:30:42.976Z,7.77
2019-04-28T23:33:13.445Z,7.59
2019-04-28T23:35:44.252Z,7.58
2019-04-28T23:38:14.734Z,7.60
2019-04-28T23:40:54.072Z,7.49
2019-04-28T23:43:24.577Z,7.52
2019-04-28T23:45:55.281Z,7.55
2019-04-28T23:48:25.734Z,7.57
2019-04-28T23:51:15.138Z,7.56
2019-04-28T23:54:01.176Z,7.59
2019-04-28T23:56:31.670Z,7.58
2019-04-28T23:59:02.464Z,7.48
